createdAt,value
2022-12-16T00:01:52.101Z,4.07
2022-12-16T00:04:20.725Z,3.70
2022-12-16T00:06:48.969Z,4.00
2022-12-16T00:09:18.904Z,4.00
2022-12-16T00:11:47.270Z,3.90
2022-12-16T00:14:15.723Z,4.07
2022-12-16T00:16:44.068Z,4.13
2022-12-16T00:19:12.477Z,3.40
2022-12-16T00:21:40.765Z,3.30
2022-12-16T00:24:09.050Z,3.47
2022-12-16T00:26:38.718Z,3.50
2022-12-16T00:29:07.616Z,3.13
2022-12-16T00:31:35.955Z,3.30
2022-12-16T00:34:04.267Z,3.77
2022-12-16T00:36:32.721Z,3.90
2022-12-16T00:39:00.998Z,3.60
2022-12-16T00:41:29.257Z,4.00
2022-12-16T00:43:58.908Z,3.80
2022-12-16T00:46:27.246Z,4.07
2022-12-16T00:48:55.636Z,3.90
2022-12-16T00:51:23.984Z,4.20
2022-12-16T00:53:52.267Z,4.30
2022-12-16T00:56:20.725Z,4.60
2022-12-16T00:58:49.010Z,4.80
2022-12-16T01:01:18.764Z,4.53
2022-12-16T01:03:47.282Z,5.23
2022-12-16T01:06:18.325Z,4.90
2022-12-16T01:08:48.710Z,4.97
2022-12-16T01:11:19.173Z,4.77
2022-12-16T01:13:50.706Z,4.17
2022-12-16T01:16:21.742Z,4.50
2022-12-16T01:18:50.048Z,4.37
2022-12-16T01:21:18.401Z,4.60
2022-12-16T01:23:48.970Z,4.90
2022-12-16T01:26:19.266Z,5.00
2022-12-16T01:28:50.317Z,5.23
2022-12-16T01:31:21.712Z,4.60
2022-12-16T01:33:50.674Z,4.53
2022-12-16T01:36:20.080Z,4.07
2022-12-16T01:38:49.083Z,4.40
2022-12-16T01:41:18.469Z,4.17
2022-12-16T01:43:47.641Z,4.30
2022-12-16T01:46:23.722Z,4.50
2022-12-16T01:48:57.622Z,4.00
2022-12-16T01:51:29.777Z,4.57
2022-12-16T01:54:02.917Z,4.60
2022-12-16T01:56:34.105Z,5.00
2022-12-16T01:59:03.322Z,5.03
2022-12-16T02:01:33.137Z,5.30
2022-12-16T02:04:04.979Z,6.57
2022-12-16T02:06:33.612Z,6.50
2022-12-16T02:09:06.472Z,7.80
2022-12-16T02:12:01.698Z,7.07
2022-12-16T02:14:48.195Z,6.30
2022-12-16T02:17:28.352Z,5.80
2022-12-16T02:20:47.850Z,5.00
2022-12-16T02:23:44.170Z,4.97
2022-12-16T02:26:45.810Z,4.80
2022-12-16T02:29:38.466Z,5.17
2022-12-16T02:32:17.122Z,5.60
2022-12-16T02:34:56.650Z,5.40
2022-12-16T02:37:37.617Z,5.83
2022-12-16T02:40:11.649Z,5.23
2022-12-16T02:42:46.407Z,4.93
2022-12-16T02:45:18.469Z,5.00
2022-12-16T02:47:48.777Z,5.00
2022-12-16T02:50:21.487Z,5.27
2022-12-16T02:52:51.993Z,5.40
2022-12-16T02:55:21.428Z,5.00
2022-12-16T02:58:05.551Z,5.70
2022-12-16T03:00:41.805Z,6.40
2022-12-16T03:03:19.468Z,5.40
2022-12-16T03:05:49.694Z,5.07
2022-12-16T03:08:23.283Z,5.10
2022-12-16T03:10:58.038Z,5.47
2022-12-16T03:13:30.076Z,6.07
2022-12-16T03:16:01.395Z,5.80
2022-12-16T03:18:31.262Z,5.90
2022-12-16T03:21:05.202Z,5.60
2022-12-16T03:23:41.990Z,5.50
2022-12-16T03:26:18.022Z,5.40
2022-12-16T03:28:53.309Z,5.10
2022-12-16T03:31:29.709Z,5.40
2022-12-16T03:34:05.176Z,5.90
2022-12-16T03:36:37.590Z,6.60
2022-12-16T03:39:08.258Z,5.90
2022-12-16T03:41:37.832Z,6.43
2022-12-16T03:44:06.337Z,6.10
2022-12-16T03:46:34.736Z,6.57
2022-12-16T03:49:04.436Z,5.87
2022-12-16T03:51:32.868Z,6.60
2022-12-16T03:54:01.110Z,5.97
2022-12-16T03:56:29.445Z,5.90
2022-12-16T03:58:58.207Z,6.17
2022-12-16T04:01:26.979Z,5.93
2022-12-16T04:03:55.409Z,6.67
2022-12-16T04:06:25.168Z,6.10
2022-12-16T04:08:53.439Z,6.20
2022-12-16T04:11:39.224Z,6.40
2022-12-16T04:14:26.761Z,6.67
2022-12-16T04:17:12.711Z,6.40
2022-12-16T04:19:59.294Z,6.23
2022-12-16T04:22:49.196Z,6.83
2022-12-16T04:25:20.865Z,6.80
2022-12-16T04:27:49.150Z,6.03
2022-12-16T04:30:22.156Z,6.10
2022-12-16T04:33:10.885Z,6.63
2022-12-16T04:35:56.841Z,6.40
2022-12-16T04:38:44.369Z,6.40
2022-12-16T04:41:30.485Z,6.27
2022-12-16T04:44:17.072Z,6.67
2022-12-16T04:47:03.231Z,6.60
2022-12-16T04:49:49.259Z,6.20
2022-12-16T04:52:35.329Z,6.67
2022-12-16T04:55:23.647Z,6.17
2022-12-16T04:58:11.178Z,6.60
2022-12-16T05:01:09.160Z,7.03
2022-12-16T05:03:55.549Z,6.57
2022-12-16T05:06:41.379Z,6.40
2022-12-16T05:09:27.533Z,6.00
2022-12-16T05:12:14.368Z,6.80
2022-12-16T05:15:00.012Z,6.60
2022-12-16T05:17:46.069Z,6.53
2022-12-16T05:20:31.700Z,6.50
2022-12-16T05:23:17.783Z,6.23
2022-12-16T05:26:03.769Z,7.93
2022-12-16T05:28:50.986Z,7.50
2022-12-16T05:31:36.768Z,7.23
2022-12-16T05:34:22.824Z,7.20
2022-12-16T05:37:19.684Z,7.70
2022-12-16T05:40:05.329Z,7.20
2022-12-16T05:42:51.380Z,6.90
2022-12-16T05:45:38.991Z,7.20
2022-12-16T05:48:36.573Z,7.03
2022-12-16T05:51:22.620Z,7.90
2022-12-16T05:54:08.175Z,7.50
2022-12-16T05:56:53.798Z,6.90
2022-12-16T05:59:39.826Z,7.63
2022-12-16T06:02:27.438Z,7.23
2022-12-16T06:05:13.465Z,7.77
2022-12-16T06:07:59.367Z,8.50
2022-12-16T06:10:45.306Z,8.43
2022-12-16T06:13:31.213Z,8.10
2022-12-16T06:16:17.336Z,9.53
2022-12-16T06:19:05.606Z,10.70
2022-12-16T06:21:51.254Z,11.20
2022-12-16T06:24:36.889Z,9.00
2022-12-16T06:27:22.757Z,8.67
2022-12-16T06:30:08.187Z,8.97
2022-12-16T06:32:53.682Z,10.30
2022-12-16T06:35:40.782Z,12.23
2022-12-16T06:38:26.327Z,10.03
2022-12-16T06:41:11.906Z,11.07
2022-12-16T06:43:57.591Z,13.70
2022-12-16T06:46:43.415Z,14.50
2022-12-16T06:49:29.025Z,15.50
2022-12-16T06:52:16.223Z,14.13
2022-12-16T06:55:01.724Z,14.73
2022-12-16T06:57:47.384Z,11.03
2022-12-16T07:00:44.830Z,10.93
2022-12-16T07:03:35.622Z,9.73
2022-12-16T07:06:21.721Z,9.93
2022-12-16T07:09:08.523Z,9.83
2022-12-16T07:11:54.321Z,10.07
2022-12-16T07:14:39.293Z,10.30
2022-12-16T07:17:25.025Z,9.90
2022-12-16T07:20:10.753Z,9.20
2022-12-16T07:23:06.168Z,9.40
2022-12-16T07:25:58.051Z,15.03
2022-12-16T07:28:44.248Z,24.33
2022-12-16T07:31:29.870Z,11.13
2022-12-16T07:34:15.777Z,10.70
2022-12-16T07:37:16.164Z,10.30
2022-12-16T07:40:01.913Z,10.53
2022-12-16T07:42:49.337Z,10.47
2022-12-16T07:45:37.994Z,9.90
2022-12-16T07:48:26.799Z,9.20
2022-12-16T07:51:12.498Z,10.30
2022-12-16T07:53:58.229Z,9.37
2022-12-16T07:56:58.534Z,13.30
2022-12-16T07:59:45.779Z,11.87
2022-12-16T08:02:31.164Z,11.60
2022-12-16T08:05:22.453Z,21.87
2022-12-16T08:08:14.017Z,14.10
2022-12-16T08:10:59.780Z,13.80
2022-12-16T08:13:45.827Z,13.50
2022-12-16T08:16:33.131Z,11.80
2022-12-16T08:19:18.689Z,16.70
2022-12-16T08:22:04.603Z,15.60
2022-12-16T08:24:53.455Z,16.10
2022-12-16T08:27:35.984Z,17.37
2022-12-16T08:30:21.921Z,14.63
2022-12-16T08:33:18.392Z,14.50
2022-12-16T08:36:05.635Z,13.73
2022-12-16T08:38:51.738Z,13.20
2022-12-16T08:41:38.780Z,16.07
2022-12-16T08:44:24.378Z,13.93
2022-12-16T08:47:10.570Z,11.57
2022-12-16T08:50:01.480Z,11.20
2022-12-16T08:52:50.284Z,13.07
2022-12-16T08:55:36.058Z,14.10
2022-12-16T08:58:22.241Z,13.57
2022-12-16T09:01:08.113Z,10.90
2022-12-16T09:03:54.573Z,11.00
2022-12-16T09:06:41.858Z,10.87
2022-12-16T09:09:28.133Z,11.30
2022-12-16T09:12:16.244Z,10.47
2022-12-16T09:15:02.063Z,10.17
2022-12-16T09:17:47.893Z,11.70
2022-12-16T09:20:33.826Z,11.67
2022-12-16T09:23:22.223Z,11.47
2022-12-16T09:26:08.375Z,12.57
2022-12-16T09:28:54.689Z,11.63
2022-12-16T09:31:40.498Z,11.73
2022-12-16T09:34:26.347Z,12.10
2022-12-16T09:37:12.005Z,12.47
2022-12-16T09:39:59.256Z,12.80
2022-12-16T09:42:54.070Z,12.60
2022-12-16T09:45:51.784Z,12.00
2022-12-16T09:48:46.834Z,11.80
2022-12-16T09:51:33.806Z,11.83
2022-12-16T09:54:21.467Z,11.30
2022-12-16T09:57:53.339Z,11.80
2022-12-16T10:00:44.345Z,12.17
2022-12-16T10:03:38.607Z,12.77
2022-12-16T10:06:30.457Z,12.60
2022-12-16T10:09:22.308Z,13.30
2022-12-16T10:12:19.909Z,12.40
2022-12-16T10:15:13.606Z,12.70
2022-12-16T10:18:05.051Z,12.07
2022-12-16T10:20:58.748Z,11.07
2022-12-16T10:23:51.003Z,13.67
2022-12-16T10:26:47.152Z,13.93
2022-12-16T10:29:37.937Z,11.50
2022-12-16T10:32:34.603Z,11.70
2022-12-16T10:35:33.750Z,10.97
2022-12-16T10:38:19.839Z,10.87
2022-12-16T10:41:05.740Z,11.40
2022-12-16T10:43:58.093Z,10.50
2022-12-16T10:46:48.157Z,10.63
2022-12-16T10:49:34.985Z,10.93
2022-12-16T10:52:22.767Z,10.60
2022-12-16T10:55:17.379Z,9.40
2022-12-16T10:58:14.913Z,10.93
2022-12-16T11:01:07.065Z,10.77
2022-12-16T11:03:54.830Z,10.07
2022-12-16T11:06:45.167Z,10.53
2022-12-16T11:09:40.851Z,9.97
2022-12-16T11:12:50.054Z,10.43
2022-12-16T11:15:45.106Z,8.73
2022-12-16T11:18:33.489Z,9.87
2022-12-16T11:21:25.076Z,8.67
2022-12-16T11:24:30.286Z,7.60
2022-12-16T11:27:19.848Z,7.67
2022-12-16T11:30:13.091Z,7.53
2022-12-16T11:33:03.253Z,8.23
2022-12-16T11:35:52.753Z,7.67
2022-12-16T11:38:45.868Z,12.03
2022-12-16T11:41:44.657Z,7.30
2022-12-16T11:44:38.032Z,6.40
2022-12-16T11:47:32.203Z,6.93
2022-12-16T11:50:18.632Z,10.43
2022-12-16T11:53:13.378Z,9.30
2022-12-16T11:56:07.647Z,8.00
2022-12-16T11:59:03.926Z,7.03
2022-12-16T12:01:55.528Z,7.23
2022-12-16T12:04:42.308Z,7.60
2022-12-16T12:07:55.438Z,8.93
2022-12-16T12:11:08.354Z,8.27
2022-12-16T12:14:17.369Z,8.17
2022-12-16T12:17:16.401Z,7.80
2022-12-16T12:20:10.967Z,8.93
2022-12-16T12:22:57.855Z,9.40
2022-12-16T12:25:50.367Z,9.50
2022-12-16T12:28:51.724Z,9.93
2022-12-16T12:31:50.820Z,10.53
2022-12-16T12:34:47.211Z,9.57
2022-12-16T12:37:41.561Z,11.27
2022-12-16T12:40:41.875Z,7.97
2022-12-16T12:43:42.675Z,8.57
2022-12-16T12:46:37.377Z,7.60
2022-12-16T12:49:31.932Z,8.77
2022-12-16T12:52:28.645Z,5.80
2022-12-16T12:55:22.650Z,5.60
2022-12-16T12:58:11.855Z,5.70
2022-12-16T13:01:05.239Z,6.00
2022-12-16T13:03:56.239Z,5.07
2022-12-16T13:06:42.705Z,6.00
2022-12-16T13:09:49.584Z,4.80
2022-12-16T13:12:42.310Z,6.93
2022-12-16T13:15:29.820Z,6.47
2022-12-16T13:18:46.739Z,6.70
2022-12-16T13:22:06.082Z,4.33
2022-12-16T13:25:04.937Z,5.43
2022-12-16T13:28:06.837Z,4.07
2022-12-16T13:30:53.798Z,6.80
2022-12-16T13:33:45.766Z,5.33
2022-12-16T13:36:33.311Z,4.70
2022-12-16T13:39:37.994Z,5.03
2022-12-16T13:42:25.358Z,4.70
2022-12-16T13:45:18.283Z,5.00
2022-12-16T13:48:43.449Z,4.17
2022-12-16T13:52:06.408Z,4.50
2022-12-16T13:55:03.123Z,4.70
2022-12-16T13:57:56.082Z,5.50
2022-12-16T14:00:44.318Z,5.03
2022-12-16T14:03:36.555Z,4.27
2022-12-16T14:06:27.529Z,4.80
2022-12-16T14:09:13.197Z,4.50
2022-12-16T14:12:08.528Z,4.43
2022-12-16T14:15:02.409Z,4.20
2022-12-16T14:17:55.391Z,5.30
2022-12-16T14:20:46.144Z,6.00
2022-12-16T14:23:59.205Z,4.50
2022-12-16T14:26:45.897Z,4.17
2022-12-16T14:29:40.134Z,4.40
2022-12-16T14:32:47.310Z,4.27
2022-12-16T14:35:35.577Z,4.40
2022-12-16T14:38:43.471Z,4.90
2022-12-16T14:41:31.422Z,4.13
2022-12-16T14:44:17.344Z,4.43
2022-12-16T14:47:17.315Z,5.27
2022-12-16T14:50:10.854Z,5.07
2022-12-16T14:52:58.122Z,5.77
2022-12-16T14:55:47.778Z,4.43
2022-12-16T14:58:35.813Z,28.93
2022-12-16T15:01:29.120Z,17.43
2022-12-16T15:04:15.945Z,8.00
2022-12-16T15:07:05.650Z,7.20
2022-12-16T15:09:56.139Z,8.77
2022-12-16T15:12:44.496Z,10.40
2022-12-16T15:15:36.615Z,8.10
2022-12-16T15:18:23.393Z,8.67
2022-12-16T15:21:11.570Z,7.70
2022-12-16T15:24:02.040Z,8.80
2022-12-16T15:26:50.131Z,10.60
2022-12-16T15:29:51.600Z,10.40
2022-12-16T15:32:54.125Z,7.60
2022-12-16T15:35:48.398Z,6.33
2022-12-16T15:38:45.417Z,6.07
2022-12-16T15:41:41.315Z,6.10
2022-12-16T15:44:37.942Z,6.37
2022-12-16T15:47:24.465Z,6.57
2022-12-16T15:50:10.685Z,6.37
2022-12-16T15:52:59.671Z,5.70
2022-12-16T15:55:48.686Z,6.00
2022-12-16T15:58:45.854Z,7.67
2022-12-16T16:01:34.154Z,8.00
2022-12-16T16:04:19.918Z,6.87
2022-12-16T16:07:07.835Z,7.33
2022-12-16T16:09:55.355Z,9.57
2022-12-16T16:12:43.210Z,9.20
2022-12-16T16:15:33.186Z,8.87
2022-12-16T16:18:21.941Z,9.87
2022-12-16T16:21:08.446Z,9.27
2022-12-16T16:23:54.705Z,10.67
2022-12-16T16:26:45.064Z,10.83
2022-12-16T16:29:31.000Z,12.30
2022-12-16T16:32:18.402Z,12.80
2022-12-16T16:35:04.073Z,14.07
2022-12-16T16:38:04.496Z,18.60
2022-12-16T16:40:52.373Z,23.40
2022-12-16T16:43:38.621Z,27.93
2022-12-16T16:46:42.841Z,26.13
2022-12-16T16:49:32.100Z,25.03
2022-12-16T16:52:17.829Z,28.67
2022-12-16T16:55:03.292Z,26.87
2022-12-16T16:57:53.874Z,22.90
2022-12-16T17:00:39.664Z,19.03
2022-12-16T17:03:25.814Z,18.80
2022-12-16T17:06:13.232Z,21.13
2022-12-16T17:08:59.256Z,17.50
2022-12-16T17:11:47.229Z,15.70
2022-12-16T17:14:37.189Z,14.77
2022-12-16T17:17:23.497Z,14.80
2022-12-16T17:20:09.250Z,15.23
2022-12-16T17:22:56.424Z,14.57
2022-12-16T17:25:42.762Z,16.77
2022-12-16T17:28:29.227Z,16.83
2022-12-16T17:31:15.091Z,18.93
2022-12-16T17:34:01.161Z,22.17
2022-12-16T17:36:43.359Z,28.20
2022-12-16T17:39:30.669Z,29.67
2022-12-16T17:42:16.858Z,29.77
2022-12-16T17:45:02.957Z,26.43
2022-12-16T17:47:47.821Z,22.27
2022-12-16T17:50:33.979Z,23.47
2022-12-16T17:53:20.035Z,23.13
2022-12-16T17:56:07.024Z,26.07
2022-12-16T17:58:55.028Z,26.03
2022-12-16T18:01:41.552Z,27.73
2022-12-16T18:04:27.626Z,30.10
2022-12-16T18:07:13.393Z,28.07
2022-12-16T18:09:59.833Z,28.00
2022-12-16T18:12:47.304Z,25.83
2022-12-16T18:15:33.249Z,26.90
2022-12-16T18:18:19.201Z,26.30
2022-12-16T18:21:05.211Z,25.90
2022-12-16T18:23:51.075Z,25.80
2022-12-16T18:26:36.984Z,26.90
2022-12-16T18:29:24.061Z,29.20
2022-12-16T18:32:09.973Z,30.60
2022-12-16T18:34:55.552Z,30.83
2022-12-16T18:37:42.018Z,31.17
2022-12-16T18:40:28.903Z,35.03
2022-12-16T18:43:14.586Z,33.20
2022-12-16T18:46:01.645Z,31.57
2022-12-16T18:48:47.169Z,31.87
2022-12-16T18:51:32.730Z,34.07
2022-12-16T18:54:18.317Z,32.83
2022-12-16T18:57:04.215Z,37.90
2022-12-16T18:59:49.749Z,40.17
2022-12-16T19:02:36.737Z,35.80
2022-12-16T19:05:23.314Z,33.50
2022-12-16T19:08:14.124Z,31.13
2022-12-16T19:11:00.475Z,29.60
2022-12-16T19:13:51.433Z,28.10
2022-12-16T19:16:37.161Z,27.67
2022-12-16T19:19:35.790Z,23.83
2022-12-16T19:22:21.475Z,22.17
2022-12-16T19:25:07.195Z,24.07
2022-12-16T19:27:56.427Z,23.43
2022-12-16T19:30:42.711Z,29.60
2022-12-16T19:33:28.740Z,29.37
2022-12-16T19:36:16.134Z,34.00
2022-12-16T19:39:01.708Z,32.93
2022-12-16T19:41:47.587Z,34.07
2022-12-16T19:44:33.634Z,33.27
2022-12-16T19:47:19.551Z,29.77
2022-12-16T19:50:05.150Z,33.23
2022-12-16T19:52:52.557Z,44.23
2022-12-16T19:55:41.749Z,45.90
2022-12-16T19:58:27.291Z,46.13
2022-12-16T20:01:12.961Z,42.20
2022-12-16T20:03:59.095Z,50.37
2022-12-16T20:06:44.481Z,43.40
2022-12-16T20:09:31.374Z,39.50
2022-12-16T20:12:17.559Z,39.80
2022-12-16T20:15:03.131Z,38.20
2022-12-16T20:17:49.139Z,38.90
2022-12-16T20:20:35.342Z,40.33
2022-12-16T20:23:20.945Z,38.77
2022-12-16T20:26:14.048Z,38.03
2022-12-16T20:28:59.910Z,39.03
2022-12-16T20:31:45.750Z,37.47
2022-12-16T20:34:31.690Z,38.43
2022-12-16T20:37:17.489Z,40.47
2022-12-16T20:40:05.289Z,40.80
2022-12-16T20:42:53.332Z,43.10
2022-12-16T20:45:39.625Z,44.60
2022-12-16T20:48:25.945Z,42.80
2022-12-16T20:51:12.887Z,41.13
2022-12-16T20:53:58.871Z,42.83
2022-12-16T20:56:44.674Z,40.83
2022-12-16T20:59:32.019Z,40.13
2022-12-16T21:02:29.047Z,42.37
2022-12-16T21:05:18.220Z,42.10
2022-12-16T21:08:03.953Z,41.20
2022-12-16T21:10:49.421Z,48.17
2022-12-16T21:13:36.469Z,57.83
2022-12-16T21:16:25.537Z,55.37
2022-12-16T21:19:11.538Z,52.77
2022-12-16T21:21:57.222Z,54.23
2022-12-16T21:24:43.386Z,58.77
2022-12-16T21:27:29.181Z,56.73
2022-12-16T21:30:14.811Z,53.57
2022-12-16T21:33:02.082Z,59.57
2022-12-16T21:35:47.569Z,72.30
2022-12-16T21:38:33.147Z,76.50
2022-12-16T21:41:18.781Z,77.17
2022-12-16T21:44:04.350Z,80.23
2022-12-16T21:46:50.001Z,74.37
2022-12-16T21:49:37.312Z,74.40
2022-12-16T21:52:23.269Z,73.90
2022-12-16T21:55:09.117Z,89.43
2022-12-16T21:57:55.169Z,84.30
2022-12-16T22:00:42.451Z,85.13
2022-12-16T22:03:28.062Z,85.57
2022-12-16T22:06:18.680Z,76.77
2022-12-16T22:09:04.250Z,66.37
2022-12-16T22:11:50.087Z,61.47
2022-12-16T22:14:41.666Z,93.20
2022-12-16T22:17:27.725Z,97.50
2022-12-16T22:20:13.893Z,99.60
2022-12-16T22:23:01.127Z,95.37
2022-12-16T22:25:47.018Z,86.83
2022-12-16T22:28:32.788Z,69.30
2022-12-16T22:31:19.093Z,61.70
2022-12-16T22:34:07.841Z,58.57
2022-12-16T22:36:53.945Z,52.50
2022-12-16T22:39:45.121Z,48.83
2022-12-16T22:42:31.757Z,48.33
2022-12-16T22:45:17.482Z,45.57
2022-12-16T22:48:03.051Z,43.57
2022-12-16T22:50:50.553Z,48.43
2022-12-16T22:53:36.139Z,47.87
2022-12-16T22:56:23.545Z,48.07
2022-12-16T22:59:09.282Z,46.40
2022-12-16T23:01:55.112Z,44.90
2022-12-16T23:04:42.694Z,46.10
2022-12-16T23:07:28.764Z,42.20
2022-12-16T23:10:14.374Z,43.27
2022-12-16T23:13:01.664Z,42.03
2022-12-16T23:15:47.142Z,39.03
2022-12-16T23:18:32.723Z,40.50
2022-12-16T23:21:18.460Z,39.87
2022-12-16T23:24:04.298Z,44.70
2022-12-16T23:26:49.817Z,43.80
2022-12-16T23:29:36.942Z,46.10
2022-12-16T23:32:22.770Z,43.57
2022-12-16T23:35:08.335Z,44.27
2022-12-16T23:37:55.516Z,43.27
2022-12-16T23:40:41.801Z,39.67
2022-12-16T23:43:27.519Z,44.80
2022-12-16T23:46:14.418Z,42.50
2022-12-16T23:49:00.299Z,41.43
2022-12-16T23:51:46.031Z,43.17
2022-12-16T23:54:31.608Z,39.33
2022-12-16T23:57:22.812Z,34.53
